Time;durP1;ratioP1;P1;durP2;ratioP2;P2;SDS_P1;SDS_P2;PMS_P1;PMS_P2;Temp;Humidity;BMP_temperature;BMP_pressure;BME280_temperature;BME280_humidity;BME280_pressure;Samples;Min_cycle;Max_cycle;Signal;HPM_P1;HPM_P2
2023/08/08 00:01:55;;;;;;;;;;;;;;;28.61;32.30;97795.88;5072137;27;19972;-84
2023/08/08 00:04:21;;;;;;;;;;;;;;;28.45;32.04;97799.00;5080652;28;19917;-84
2023/08/08 00:06:51;;;;;;;;;;;;;;;28.56;32.24;97797.28;5083091;27;20030;-83
2023/08/08 00:09:17;;;;;;;;;;;;;;;27.97;32.72;97789.34;5090929;27;19917;-83
2023/08/08 00:11:43;;;;;;;;;;;;;;;27.92;33.30;97795.59;5079212;27;19972;-85
2023/08/08 00:14:09;;;;;;;;;;;;;;;27.93;32.67;97792.34;5088289;28;20429;-84
2023/08/08 00:16:35;;;;;;;;;;;;;;;27.70;33.28;97792.13;5073951;28;19948;-84
2023/08/08 00:19:01;;;;;;;;;;;;;;;27.69;33.24;97796.97;5080170;27;20007;-84
2023/08/08 00:21:27;;;;;;;;;;;;;;;27.18;34.35;97793.75;5086035;27;20336;-84
2023/08/08 00:23:53;;;;;;;;;;;;;;;27.21;35.68;97794.88;5071938;28;20389;-84
2023/08/08 00:26:19;;;;;;;;;;;;;;;27.68;33.11;97800.25;5081230;27;19955;-83
2023/08/08 00:28:45;;;;;;;;;;;;;;;27.98;32.64;97805.81;5092371;27;19923;-83
2023/08/08 00:31:11;;;;;;;;;;;;;;;28.15;32.62;97803.50;5076884;27;20337;-84
2023/08/08 00:33:37;;;;;;;;;;;;;;;28.19;31.88;97806.19;5084372;27;19925;-84
2023/08/08 00:36:03;;;;;;;;;;;;;;;28.06;33.40;97809.94;5072354;27;20425;-83
2023/08/08 00:38:29;;;;;;;;;;;;;;;28.08;32.40;97807.44;5087105;27;19923;-84
2023/08/08 00:40:56;;;;;;;;;;;;;;;28.08;32.63;97814.34;5085650;27;20290;-84
2023/08/08 00:43:22;;;;;;;;;;;;;;;28.14;32.98;97809.63;5078654;27;19929;-84
2023/08/08 00:45:48;;;;;;;;;;;;;;;28.23;33.31;97818.13;5084483;28;19975;-83
2023/08/08 00:48:14;;;;;;;;;;;;;;;28.25;32.11;97809.97;5078024;28;20365;-84
2023/08/08 00:50:41;;;;;;;;;;;;;;;28.14;32.62;97820.94;5064317;27;19921;-83
2023/08/08 00:53:08;;;;;;;;;;;;;;;27.99;32.78;97821.53;5073367;28;19929;-83
2023/08/08 00:55:34;;;;;;;;;;;;;;;27.70;33.13;97823.91;5077329;27;20389;-84
2023/08/08 00:58:00;;;;;;;;;;;;;;;27.58;33.90;97830.47;5075316;27;19924;-84
2023/08/08 01:00:26;;;;;;;;;;;;;;;27.80;34.49;97833.97;5079418;27;19925;-84
2023/08/08 01:02:52;;;;;;;;;;;;;;;27.21;34.72;97840.72;5083248;27;19920;-84
2023/08/08 01:05:18;;;;;;;;;;;;;;;27.24;34.03;97844.66;5079177;27;19924;-84
2023/08/08 01:07:53;;;;;;;;;;;;;;;27.63;32.93;97843.19;5080699;27;19920;-84
2023/08/08 01:10:24;;;;;;;;;;;;;;;27.56;33.27;97849.09;5086148;28;20367;-84
2023/08/08 01:12:52;;;;;;;;;;;;;;;27.29;33.66;97844.84;5077619;27;20330;-83
2023/08/08 01:15:18;;;;;;;;;;;;;;;27.39;32.91;97848.53;5080275;28;20396;-84
2023/08/08 01:17:45;;;;;;;;;;;;;;;27.29;33.89;97852.53;5075784;27;19921;-83
2023/08/08 01:20:16;;;;;;;;;;;;;;;27.76;32.63;97855.91;5074839;27;19972;-84
2023/08/08 01:22:50;;;;;;;;;;;;;;;27.48;33.66;97854.22;5086325;27;19967;-84
2023/08/08 01:25:17;;;;;;;;;;;;;;;27.20;34.40;97853.28;5073596;27;19971;-84
2023/08/08 01:27:43;;;;;;;;;;;;;;;26.76;34.78;97850.91;5081983;27;20406;-83
2023/08/08 01:30:10;;;;;;;;;;;;;;;27.21;33.28;97854.06;5081982;27;19927;-84
2023/08/08 01:32:36;;;;;;;;;;;;;;;27.24;34.11;97853.91;5086293;27;19990;-84
2023/08/08 01:35:02;;;;;;;;;;;;;;;27.86;32.76;97854.72;5079094;27;19924;-83
2023/08/08 01:37:40;;;;;;;;;;;;;;;27.92;32.20;97857.69;5085535;27;19968;-83
2023/08/08 01:40:09;;;;;;;;;;;;;;;27.30;33.53;97854.91;5074283;27;20296;-83
2023/08/08 01:42:35;;;;;;;;;;;;;;;27.71;32.97;97859.34;5075748;27;19920;-83
2023/08/08 01:45:02;;;;;;;;;;;;;;;27.85;32.42;97857.97;5072521;27;20278;-83
2023/08/08 01:47:28;;;;;;;;;;;;;;;27.81;32.26;97858.13;5078716;27;19920;-83
2023/08/08 01:49:54;;;;;;;;;;;;;;;27.81;32.47;97860.97;5074539;27;19964;-83
2023/08/08 01:52:22;;;;;;;;;;;;;;;27.98;31.99;97864.31;5081862;27;19962;-82
2023/08/08 01:54:48;;;;;;;;;;;;;;;28.15;31.69;97867.66;5060251;27;19947;-83
2023/08/08 01:57:14;;;;;;;;;;;;;;;28.30;31.56;97860.97;5080835;28;20294;-83
2023/08/08 01:59:40;;;;;;;;;;;;;;;28.25;31.18;97863.59;5078795;27;19916;-83
2023/08/08 02:02:06;;;;;;;;;;;;;;;28.24;31.38;97859.22;5083562;27;19920;-83
2023/08/08 02:04:32;;;;;;;;;;;;;;;28.34;30.97;97863.63;5088463;27;19964;-83
2023/08/08 02:06:58;;;;;;;;;;;;;;;28.12;30.70;97857.31;5080575;28;19920;-83
2023/08/08 02:09:24;;;;;;;;;;;;;;;27.86;30.97;97856.75;5073345;28;20385;-83
2023/08/08 02:11:50;;;;;;;;;;;;;;;27.50;32.01;97862.22;5056838;27;19920;-83
2023/08/08 02:14:16;;;;;;;;;;;;;;;27.62;31.92;97861.34;5078099;28;19981;-83
2023/08/08 02:16:42;;;;;;;;;;;;;;;27.47;32.66;97865.97;5077552;27;19917;-82
2023/08/08 02:19:08;;;;;;;;;;;;;;;27.59;31.73;97860.22;5053360;27;19932;-82
2023/08/08 02:21:34;;;;;;;;;;;;;;;27.93;30.71;97865.72;5086245;27;20027;-82
2023/08/08 02:24:00;;;;;;;;;;;;;;;27.97;31.14;97869.16;5074645;27;20355;-82
2023/08/08 02:26:26;;;;;;;;;;;;;;;27.99;31.03;97875.16;5080573;27;19920;-83
2023/08/08 02:28:52;;;;;;;;;;;;;;;27.92;30.58;97866.94;5087615;27;19964;-83
2023/08/08 02:31:20;;;;;;;;;;;;;;;27.55;32.74;97870.06;5074010;27;20317;-83
2023/08/08 02:33:50;;;;;;;;;;;;;;;27.49;31.43;97871.94;5075846;27;19932;-83
2023/08/08 02:36:17;;;;;;;;;;;;;;;26.85;32.26;97865.88;5082945;27;19920;-83
2023/08/08 02:38:43;;;;;;;;;;;;;;;26.77;32.51;97877.84;5080067;27;20281;-83
2023/08/08 02:41:09;;;;;;;;;;;;;;;26.48;32.54;97870.38;5082826;27;20010;-83
2023/08/08 02:43:35;;;;;;;;;;;;;;;26.78;31.94;97879.41;5062634;27;20041;-83
2023/08/08 02:46:01;;;;;;;;;;;;;;;26.81;32.61;97876.47;5077316;28;19927;-83
2023/08/08 02:48:30;;;;;;;;;;;;;;;26.96;31.70;97873.91;5083367;27;19920;-82
2023/08/08 02:50:56;;;;;;;;;;;;;;;27.38;30.57;97877.97;5079997;27;19920;-83
2023/08/08 02:53:22;;;;;;;;;;;;;;;27.48;30.39;97881.63;5079810;27;20052;-83
2023/08/08 02:55:48;;;;;;;;;;;;;;;27.26;30.85;97882.41;5078802;27;20295;-83
2023/08/08 02:58:14;;;;;;;;;;;;;;;27.58;29.79;97883.25;5083652;27;19928;-82
2023/08/08 03:00:40;;;;;;;;;;;;;;;27.46;29.40;97886.97;5077692;27;19920;-83
2023/08/08 03:03:06;;;;;;;;;;;;;;;27.39;29.84;97896.47;5079861;27;20284;-83
2023/08/08 03:05:33;;;;;;;;;;;;;;;27.71;29.84;97887.56;5074909;27;19924;-83
2023/08/08 03:07:59;;;;;;;;;;;;;;;27.88;30.06;97894.53;5081760;28;19925;-82
2023/08/08 03:10:25;;;;;;;;;;;;;;;28.05;29.31;97901.50;5087910;27;19920;-83
2023/08/08 03:12:51;;;;;;;;;;;;;;;28.13;29.35;97895.56;5078404;28;19973;-82
2023/08/08 03:15:17;;;;;;;;;;;;;;;28.29;29.12;97903.75;5060172;27;19980;-82
2023/08/08 03:17:43;;;;;;;;;;;;;;;28.15;29.28;97907.97;5076806;27;19926;-82
2023/08/08 03:20:10;;;;;;;;;;;;;;;28.16;29.32;97908.75;5079887;27;20011;-82
2023/08/08 03:22:37;;;;;;;;;;;;;;;28.12;28.75;97913.78;5078507;27;19921;-82
2023/08/08 03:25:04;;;;;;;;;;;;;;;28.26;29.69;97916.00;5069754;27;20337;-82
2023/08/08 03:27:30;;;;;;;;;;;;;;;28.46;29.94;97914.34;5079949;27;19958;-83
2023/08/08 03:29:56;;;;;;;;;;;;;;;28.81;29.86;97917.69;5073563;28;19921;-82
2023/08/08 03:32:23;;;;;;;;;;;;;;;29.00;29.79;97919.28;5082539;27;19931;-83
2023/08/08 03:34:49;;;;;;;;;;;;;;;29.06;29.53;97928.69;5083007;27;19920;-83
2023/08/08 03:37:15;;;;;;;;;;;;;;;29.14;29.50;97932.78;5077565;27;20061;-83
2023/08/08 03:39:41;;;;;;;;;;;;;;;29.13;29.54;97930.41;5082682;27;19921;-83
2023/08/08 03:42:07;;;;;;;;;;;;;;;29.01;29.48;97948.34;5076107;27;19936;-83
2023/08/08 03:44:33;;;;;;;;;;;;;;;29.12;29.24;97940.94;5078628;28;19932;-82
2023/08/08 03:46:59;;;;;;;;;;;;;;;29.14;28.95;97949.75;5075171;27;19920;-82
2023/08/08 03:49:25;;;;;;;;;;;;;;;28.88;28.50;97951.31;5090715;27;20325;-82
2023/08/08 03:51:51;;;;;;;;;;;;;;;28.58;29.85;97960.66;5071321;27;19927;-82
2023/08/08 03:54:18;;;;;;;;;;;;;;;28.73;29.25;97961.63;5079117;27;19924;-83
2023/08/08 03:56:44;;;;;;;;;;;;;;;28.96;29.36;97958.22;5081012;27;19920;-82
2023/08/08 03:59:10;;;;;;;;;;;;;;;29.12;29.02;97965.59;5077738;27;19943;-82
2023/08/08 04:01:37;;;;;;;;;;;;;;;29.18;28.73;97972.22;5076920;27;20016;-82
2023/08/08 04:04:04;;;;;;;;;;;;;;;29.11;29.68;97969.69;5088895;27;19920;-82
2023/08/08 04:06:30;;;;;;;;;;;;;;;29.29;29.70;97969.72;5072447;27;20544;-83
2023/08/08 04:08:56;;;;;;;;;;;;;;;29.56;29.42;97971.72;5073149;27;20385;-83
2023/08/08 04:11:22;;;;;;;;;;;;;;;29.84;28.88;97974.06;5077114;27;19999;-83
2023/08/08 04:13:48;;;;;;;;;;;;;;;29.73;29.41;97979.41;5083074;28;19952;-82
2023/08/08 04:16:14;;;;;;;;;;;;;;;29.84;30.15;97973.25;5075183;28;19967;-83
2023/08/08 04:18:40;;;;;;;;;;;;;;;30.15;29.95;97981.50;5080641;27;19920;-83
2023/08/08 04:21:06;;;;;;;;;;;;;;;30.25;30.67;97985.84;5081465;28;20003;-83
2023/08/08 04:23:32;;;;;;;;;;;;;;;30.52;29.80;97985.75;5075976;28;19920;-83
2023/08/08 04:25:58;;;;;;;;;;;;;;;30.61;28.91;97992.16;5075906;27;19923;-83
2023/08/08 04:28:24;;;;;;;;;;;;;;;30.37;30.09;97999.03;5076674;27;19966;-83
2023/08/08 04:30:50;;;;;;;;;;;;;;;30.56;29.05;97995.66;5072459;27;19927;-83
2023/08/08 04:33:16;;;;;;;;;;;;;;;30.54;28.66;97998.19;5072580;27;19932;-84
2023/08/08 04:35:42;;;;;;;;;;;;;;;30.51;28.59;98010.47;5072562;28;19917;-83
2023/08/08 04:38:08;;;;;;;;;;;;;;;30.30;28.61;98022.81;5076374;27;19924;-83
2023/08/08 04:40:35;;;;;;;;;;;;;;;30.09;29.88;98018.97;5071961;27;19923;-84
2023/08/08 04:43:01;;;;;;;;;;;;;;;30.19;29.70;98018.94;5073219;27;19920;-82
2023/08/08 04:45:28;;;;;;;;;;;;;;;30.40;29.09;98009.44;5077577;27;20030;-83
2023/08/08 04:47:55;;;;;;;;;;;;;;;30.47;29.61;98018.38;5084370;27;19923;-83
2023/08/08 04:50:21;;;;;;;;;;;;;;;30.60;29.10;98010.44;5091720;27;19916;-83
2023/08/08 04:52:47;;;;;;;;;;;;;;;30.75;30.14;98021.84;5091536;27;20010;-82
2023/08/08 04:55:13;;;;;;;;;;;;;;;30.95;30.60;98021.31;5086476;27;20006;-82
2023/08/08 04:57:39;;;;;;;;;;;;;;;31.13;30.92;98026.84;5090070;27;20464;-83
2023/08/08 05:00:08;;;;;;;;;;;;;;;31.16;28.74;98020.97;5090374;28;19989;-83
2023/08/08 05:02:34;;;;;;;;;;;;;;;31.11;28.49;98035.06;5091833;27;19968;-83
2023/08/08 05:05:00;;;;;;;;;;;;;;;30.86;28.87;98036.28;5089192;27;19941;-83
2023/08/08 05:07:27;;;;;;;;;;;;;;;30.90;27.94;98031.22;5086532;27;19920;-83
2023/08/08 05:09:53;;;;;;;;;;;;;;;30.75;30.10;98036.03;5074220;27;19963;-83
2023/08/08 05:12:19;;;;;;;;;;;;;;;30.67;29.10;98034.78;5068683;28;19959;-83
2023/08/08 05:14:45;;;;;;;;;;;;;;;30.45;29.37;98042.78;5084013;27;20019;-83
2023/08/08 05:17:11;;;;;;;;;;;;;;;30.70;28.76;98034.63;5078908;27;19916;-83
2023/08/08 05:19:37;;;;;;;;;;;;;;;30.52;28.17;98042.44;5076015;27;19927;-83
2023/08/08 05:22:03;;;;;;;;;;;;;;;30.42;28.76;98058.69;5075420;27;20012;-83
2023/08/08 05:24:29;;;;;;;;;;;;;;;30.36;28.58;98059.81;5086051;27;19928;-82
2023/08/08 05:26:55;;;;;;;;;;;;;;;30.49;30.01;98058.34;5070065;27;20293;-83
2023/08/08 05:29:21;;;;;;;;;;;;;;;30.43;29.37;98060.28;5090874;27;19927;-83
2023/08/08 05:31:47;;;;;;;;;;;;;;;30.46;28.83;98056.47;5077329;27;20011;-82
2023/08/08 05:34:13;;;;;;;;;;;;;;;30.35;28.66;98067.53;5085075;27;19928;-82
2023/08/08 05:36:39;;;;;;;;;;;;;;;30.30;28.86;98067.34;5085385;27;20007;-82
2023/08/08 05:39:06;;;;;;;;;;;;;;;29.80;29.06;98066.06;5076761;27;19954;-82
2023/08/08 05:41:33;;;;;;;;;;;;;;;30.05;29.00;98074.19;5089787;27;19920;-82
2023/08/08 05:43:59;;;;;;;;;;;;;;;29.93;29.54;98072.31;5083771;27;20020;-82
2023/08/08 05:46:25;;;;;;;;;;;;;;;29.78;29.54;98077.06;5089797;27;19934;-82
2023/08/08 05:48:51;;;;;;;;;;;;;;;30.18;29.67;98074.03;5087635;27;19921;-82
2023/08/08 05:51:17;;;;;;;;;;;;;;;30.40;28.67;98075.38;5088246;27;19961;-82
2023/08/08 05:53:43;;;;;;;;;;;;;;;30.39;29.67;98076.63;5087171;27;20355;-82
2023/08/08 05:56:09;;;;;;;;;;;;;;;30.67;29.06;98074.47;5081490;27;19927;-82
2023/08/08 05:58:36;;;;;;;;;;;;;;;31.00;29.04;98072.44;5089357;27;19922;-82
2023/08/08 06:01:06;;;;;;;;;;;;;;;31.06;29.80;98070.53;5084366;27;19930;-83
2023/08/08 06:03:32;;;;;;;;;;;;;;;31.25;29.60;98077.63;5091085;27;19971;-83
2023/08/08 06:05:58;;;;;;;;;;;;;;;31.40;28.92;98074.88;5085562;27;19928;-83
2023/08/08 06:08:24;;;;;;;;;;;;;;;31.31;28.21;98075.72;5079797;27;19960;-83
2023/08/08 06:10:50;;;;;;;;;;;;;;;31.19;28.70;98070.28;5070500;27;19920;-83
2023/08/08 06:13:16;;;;;;;;;;;;;;;31.36;27.71;98068.59;5082025;27;20067;-82
2023/08/08 06:15:42;;;;;;;;;;;;;;;31.26;28.17;98069.91;5083983;27;19969;-83
2023/08/08 06:18:08;;;;;;;;;;;;;;;31.41;28.80;98068.69;5083272;27;19960;-83
2023/08/08 06:20:34;;;;;;;;;;;;;;;31.47;26.83;98065.22;5104270;27;19930;-83
2023/08/08 06:23:01;;;;;;;;;;;;;;;31.10;27.24;98064.69;5086647;27;19964;-83
2023/08/08 06:25:27;;;;;;;;;;;;;;;30.52;27.60;98057.41;5080205;27;19921;-82
2023/08/08 06:27:53;;;;;;;;;;;;;;;30.81;27.96;98064.50;5089256;27;19916;-83
2023/08/08 06:30:20;;;;;;;;;;;;;;;31.12;27.58;98062.13;5086096;28;19969;-83
2023/08/08 06:32:45;;;;;;;;;;;;;;;30.83;27.83;98059.16;5088612;28;19931;-82
2023/08/08 06:35:12;;;;;;;;;;;;;;;30.76;29.17;98058.22;5087832;28;19920;-83
2023/08/08 06:37:38;;;;;;;;;;;;;;;31.15;29.58;98058.34;5086492;28;19926;-83
2023/08/08 06:40:06;;;;;;;;;;;;;;;31.44;28.88;98052.03;5087047;28;20354;-83
2023/08/08 06:42:32;;;;;;;;;;;;;;;31.48;28.04;98056.25;5084493;28;19965;-84
2023/08/08 06:44:58;;;;;;;;;;;;;;;31.62;27.68;98054.69;5081550;28;19932;-83
2023/08/08 06:47:25;;;;;;;;;;;;;;;31.67;27.71;98057.63;5084361;28;20449;-83
2023/08/08 06:49:51;;;;;;;;;;;;;;;31.07;27.16;98059.97;5087622;27;19947;-83
2023/08/08 06:52:17;;;;;;;;;;;;;;;30.90;28.00;98061.66;5084652;28;20370;-82
2023/08/08 06:54:43;;;;;;;;;;;;;;;30.83;29.36;98050.63;5088411;27;20380;-83
2023/08/08 06:57:09;;;;;;;;;;;;;;;30.75;28.96;98056.66;5088708;28;19920;-84
2023/08/08 06:59:35;;;;;;;;;;;;;;;30.82;27.54;98057.56;5089540;27;20393;-84
2023/08/08 07:02:01;;;;;;;;;;;;;;;31.19;29.83;98054.06;5074935;27;19932;-84
2023/08/08 07:04:27;;;;;;;;;;;;;;;31.60;29.13;98049.50;5083688;28;19971;-84
2023/08/08 07:06:53;;;;;;;;;;;;;;;31.54;27.57;98057.13;5087902;27;19924;-84
2023/08/08 07:09:19;;;;;;;;;;;;;;;31.73;28.24;98054.91;5086221;27;20405;-83
2023/08/08 07:11:45;;;;;;;;;;;;;;;31.82;27.08;98049.13;5066628;27;19920;-83
2023/08/08 07:14:11;;;;;;;;;;;;;;;31.67;29.57;98051.19;5070196;27;20330;-82
2023/08/08 07:16:37;;;;;;;;;;;;;;;31.34;27.11;98054.09;5084720;28;19916;-84
2023/08/08 07:19:03;;;;;;;;;;;;;;;31.28;27.41;98053.97;5089332;27;19948;-86
2023/08/08 07:21:31;;;;;;;;;;;;;;;31.37;25.95;98048.25;5079147;27;20408;-82
2023/08/08 07:24:00;;;;;;;;;;;;;;;31.69;28.29;98045.81;5087477;27;20270;-83
2023/08/08 07:26:26;;;;;;;;;;;;;;;31.73;27.82;98046.38;5091136;27;20381;-86
2023/08/08 07:28:52;;;;;;;;;;;;;;;31.97;26.36;98050.75;5088939;27;20342;-83
2023/08/08 07:31:18;;;;;;;;;;;;;;;31.92;26.53;98070.50;5089493;28;20581;-82
2023/08/08 07:33:44;;;;;;;;;;;;;;;31.83;27.58;98050.72;5090394;28;19920;-83
2023/08/08 07:36:10;;;;;;;;;;;;;;;32.05;26.67;98059.66;5089048;28;19965;-83
2023/08/08 07:38:37;;;;;;;;;;;;;;;32.15;26.14;98049.78;5084163;28;20397;-86
2023/08/08 07:41:03;;;;;;;;;;;;;;;32.18;25.79;98056.53;5088450;27;19920;-85
2023/08/08 07:43:29;;;;;;;;;;;;;;;31.89;26.64;98035.34;5090060;28;19931;-83
2023/08/08 07:45:55;;;;;;;;;;;;;;;31.35;25.74;98042.25;5090030;28;19924;-83
2023/08/08 07:48:22;;;;;;;;;;;;;;;31.25;26.52;98045.66;5088153;28;20280;-84
2023/08/08 07:50:48;;;;;;;;;;;;;;;31.71;26.71;98043.25;5089841;27;19968;-84
2023/08/08 07:53:13;;;;;;;;;;;;;;;31.62;30.66;98035.63;5090011;28;20007;-85
2023/08/08 07:55:39;;;;;;;;;;;;;;;31.71;26.70;98054.63;5083291;27;19943;-86
2023/08/08 07:58:05;;;;;;;;;;;;;;;32.05;26.84;98040.56;5084456;28;19916;-85
2023/08/08 08:00:32;;;;;;;;;;;;;;;32.60;26.20;98035.03;5092496;28;19942;-86
2023/08/08 08:02:58;;;;;;;;;;;;;;;32.59;26.92;98038.38;5089670;27;19916;-87
2023/08/08 08:05:24;;;;;;;;;;;;;;;32.43;26.63;98038.88;5086398;27;19920;-87
2023/08/08 08:07:50;;;;;;;;;;;;;;;32.45;28.31;98039.16;5080466;28;20016;-87
2023/08/08 08:10:16;;;;;;;;;;;;;;;32.51;27.55;98043.69;5089959;28;20376;-87
2023/08/08 08:12:42;;;;;;;;;;;;;;;32.89;26.31;98030.53;5082261;27;20423;-84
2023/08/08 08:15:09;;;;;;;;;;;;;;;32.76;28.30;98030.91;5077627;27;20381;-84
2023/08/08 08:17:35;;;;;;;;;;;;;;;33.00;27.02;98040.00;5088004;28;19916;-86
2023/08/08 08:20:05;;;;;;;;;;;;;;;32.90;27.11;98044.28;5092963;28;19920;-87
2023/08/08 08:22:31;;;;;;;;;;;;;;;31.87;25.95;98045.63;5092546;27;20003;-84
2023/08/08 08:24:57;;;;;;;;;;;;;;;31.99;28.14;98045.38;5091412;27;19927;-84
2023/08/08 08:27:23;;;;;;;;;;;;;;;31.72;25.47;98042.75;5075760;27;20288;-83
2023/08/08 08:29:49;;;;;;;;;;;;;;;30.99;25.67;98041.75;5068360;28;20323;-83
2023/08/08 08:32:15;;;;;;;;;;;;;;;31.20;27.71;98043.50;5086065;28;19920;-85
2023/08/08 08:34:42;;;;;;;;;;;;;;;31.81;25.39;98042.66;5087189;28;19912;-85
2023/08/08 08:37:08;;;;;;;;;;;;;;;31.42;25.39;98041.91;5091062;28;20296;-84
2023/08/08 08:39:34;;;;;;;;;;;;;;;31.56;26.20;98045.28;5091351;28;19912;-84
2023/08/08 08:42:04;;;;;;;;;;;;;;;31.15;25.77;98044.16;5090175;27;19926;-85
2023/08/08 08:44:33;;;;;;;;;;;;;;;31.07;25.20;98048.63;5082897;27;20596;-85
2023/08/08 08:47:03;;;;;;;;;;;;;;;31.65;28.08;98050.91;5086477;28;19916;-85
2023/08/08 08:49:30;;;;;;;;;;;;;;;32.22;27.86;98051.44;5084523;28;19924;-85
2023/08/08 08:52:00;;;;;;;;;;;;;;;32.88;27.98;98041.16;5091265;28;19956;-85
2023/08/08 08:54:27;;;;;;;;;;;;;;;33.14;27.20;98049.81;5091992;27;20014;-85
2023/08/08 08:56:53;;;;;;;;;;;;;;;33.21;26.06;98044.47;5092196;27;19916;-83
2023/08/08 08:59:19;;;;;;;;;;;;;;;33.32;26.62;98050.31;5091320;28;19925;-85
2023/08/08 09:01:45;;;;;;;;;;;;;;;33.27;27.45;98045.34;5087589;28;20007;-85
2023/08/08 09:04:11;;;;;;;;;;;;;;;33.65;29.16;98043.50;5083240;28;19917;-85
2023/08/08 09:06:38;;;;;;;;;;;;;;;33.06;25.70;98040.91;5071755;28;19966;-85
2023/08/08 09:09:04;;;;;;;;;;;;;;;32.98;25.39;98031.19;5071706;27;20351;-86
2023/08/08 09:11:31;;;;;;;;;;;;;;;32.69;25.48;98034.94;5071645;28;19979;-84
2023/08/08 09:13:57;;;;;;;;;;;;;;;32.24;27.37;98040.34;5074036;27;19970;-85
2023/08/08 09:16:23;;;;;;;;;;;;;;;32.50;25.10;98030.75;5089139;28;20376;-85
2023/08/08 09:18:50;;;;;;;;;;;;;;;32.30;27.33;98044.09;5083109;28;19924;-85
2023/08/08 09:21:16;;;;;;;;;;;;;;;31.73;22.75;98043.53;5080164;27;20011;-85
2023/08/08 09:23:43;;;;;;;;;;;;;;;31.95;25.80;98039.06;5091208;27;19917;-84
2023/08/08 09:26:10;;;;;;;;;;;;;;;32.06;25.36;98035.69;5091564;27;19970;-85
2023/08/08 09:28:36;;;;;;;;;;;;;;;32.21;25.70;98042.13;5091967;27;19916;-84
2023/08/08 09:31:02;;;;;;;;;;;;;;;32.42;23.23;98045.81;5091451;28;19916;-84
2023/08/08 09:33:28;;;;;;;;;;;;;;;32.34;25.93;98041.81;5086512;28;19921;-85
2023/08/08 09:35:55;;;;;;;;;;;;;;;32.06;26.26;98052.72;5086688;27;19920;-84
2023/08/08 09:38:21;;;;;;;;;;;;;;;32.70;27.42;98041.38;5080817;27;20289;-85
2023/08/08 09:40:47;;;;;;;;;;;;;;;32.86;23.79;98035.16;5080002;27;19920;-84
2023/08/08 09:43:13;;;;;;;;;;;;;;;32.83;26.46;98038.22;5071640;27;19964;-85
2023/08/08 09:45:41;;;;;;;;;;;;;;;33.18;26.16;98042.63;5059143;28;19986;-85
2023/08/08 09:48:07;;;;;;;;;;;;;;;33.46;26.77;98037.28;5088394;27;19920;-84
2023/08/08 09:50:34;;;;;;;;;;;;;;;33.53;26.70;98031.19;5071403;28;19916;-84
2023/08/08 09:53:01;;;;;;;;;;;;;;;33.60;28.71;98027.91;5091306;27;20288;-84
2023/08/08 09:55:28;;;;;;;;;;;;;;;33.84;27.98;98022.69;5080498;28;19920;-83
2023/08/08 09:57:54;;;;;;;;;;;;;;;33.32;28.54;98021.06;5071038;28;20007;-85
2023/08/08 10:00:20;;;;;;;;;;;;;;;33.33;26.27;98034.78;5081380;27;20452;-86
2023/08/08 10:02:47;;;;;;;;;;;;;;;33.04;25.79;98031.31;5089104;27;19924;-87
2023/08/08 10:05:13;;;;;;;;;;;;;;;33.30;27.97;98024.41;5090754;27;19916;-87
2023/08/08 10:07:43;;;;;;;;;;;;;;;33.50;27.69;98031.34;5071342;28;20337;-86
2023/08/08 10:10:09;;;;;;;;;;;;;;;33.75;26.33;98024.97;5071025;27;20274;-86
2023/08/08 10:12:39;;;;;;;;;;;;;;;34.03;28.75;98023.19;5074680;28;19970;-87
2023/08/08 10:15:09;;;;;;;;;;;;;;;33.99;27.26;98028.28;5076814;28;19924;-86
2023/08/08 10:17:37;;;;;;;;;;;;;;;34.09;28.03;98032.56;5073956;28;19960;-86
2023/08/08 10:20:09;;;;;;;;;;;;;;;34.04;29.16;98027.59;5090352;28;20011;-86
2023/08/08 10:22:35;;;;;;;;;;;;;;;33.79;26.72;98023.44;5079356;27;19920;-86
2023/08/08 10:25:03;;;;;;;;;;;;;;;33.70;27.98;98023.59;5078449;27;19921;-86
2023/08/08 10:27:33;;;;;;;;;;;;;;;33.92;28.08;98023.03;5083944;27;20274;-86
2023/08/08 10:30:09;;;;;;;;;;;;;;;34.19;26.60;98030.34;5081440;27;19922;-84
2023/08/08 10:32:41;;;;;;;;;;;;;;;34.12;27.73;98020.19;5084026;28;19921;-86
2023/08/08 10:35:08;;;;;;;;;;;;;;;34.02;28.40;98018.75;5090476;28;20007;-88
2023/08/08 10:37:37;;;;;;;;;;;;;;;34.15;27.40;98022.00;5083660;28;19920;-88
2023/08/08 10:40:05;;;;;;;;;;;;;;;34.27;27.49;98025.72;5070626;27;19917;-86
2023/08/08 10:42:32;;;;;;;;;;;;;;;33.80;25.10;98024.22;5071283;27;19920;-87
2023/08/08 10:44:59;;;;;;;;;;;;;;;33.60;25.47;98018.56;5085665;28;20377;-88
2023/08/08 10:47:30;;;;;;;;;;;;;;;32.53;26.37;98026.94;5074701;27;19928;-86
2023/08/08 10:50:07;;;;;;;;;;;;;;;32.54;26.96;98028.50;5081031;28;19920;-86
2023/08/08 10:52:37;;;;;;;;;;;;;;;32.72;27.79;98030.31;5080590;27;19939;-83
2023/08/08 10:55:03;;;;;;;;;;;;;;;33.09;27.80;98030.59;5077831;28;19959;-84
2023/08/08 10:57:30;;;;;;;;;;;;;;;32.98;28.42;98025.50;5065892;27;19924;-85
2023/08/08 11:00:15;;;;;;;;;;;;;;;33.24;28.06;98028.47;5086139;28;19920;-84
2023/08/08 11:02:41;;;;;;;;;;;;;;;33.59;28.43;98028.38;5092777;28;20351;-84
2023/08/08 11:05:09;;;;;;;;;;;;;;;33.88;28.83;98025.34;5078241;28;19947;-83
2023/08/08 11:07:37;;;;;;;;;;;;;;;33.99;28.75;98025.44;5073659;28;19916;-84
2023/08/08 11:10:04;;;;;;;;;;;;;;;34.17;28.94;98027.22;5055655;28;20296;-83
2023/08/08 11:12:30;;;;;;;;;;;;;;;34.13;26.50;98021.72;5073729;27;19924;-83
2023/08/08 11:14:56;;;;;;;;;;;;;;;33.95;27.95;98024.91;5088736;28;19927;-83
2023/08/08 11:17:22;;;;;;;;;;;;;;;34.06;27.19;98020.13;5093555;28;19916;-83
2023/08/08 11:19:48;;;;;;;;;;;;;;;33.97;26.81;98028.03;5086471;28;19927;-83
2023/08/08 11:22:14;;;;;;;;;;;;;;;33.72;26.02;98029.59;5081417;27;19916;-83
2023/08/08 11:24:40;;;;;;;;;;;;;;;33.73;26.37;98021.81;5073513;28;20296;-83
2023/08/08 11:27:06;;;;;;;;;;;;;;;33.41;26.61;98016.00;5073253;28;20292;-83
2023/08/08 11:29:32;;;;;;;;;;;;;;;33.67;25.27;98015.28;5082337;28;20306;-83
2023/08/08 11:32:02;;;;;;;;;;;;;;;33.71;27.44;98025.16;5081975;28;20011;-84
2023/08/08 11:34:32;;;;;;;;;;;;;;;34.21;26.87;98022.06;5058111;27;19928;-86
2023/08/08 11:36:59;;;;;;;;;;;;;;;34.14;26.28;98013.97;5077853;28;20014;-84
2023/08/08 11:39:26;;;;;;;;;;;;;;;33.82;26.45;98025.28;5078142;28;19952;-86
2023/08/08 11:41:53;;;;;;;;;;;;;;;33.88;25.25;98022.50;5072828;27;19932;-85
2023/08/08 11:44:19;;;;;;;;;;;;;;;34.34;30.04;98019.56;5084942;27;19947;-86
2023/08/08 11:46:48;;;;;;;;;;;;;;;34.69;25.95;98017.25;5183692;27;20337;-86
2023/08/08 11:49:16;;;;;;;;;;;;;;;34.95;25.52;98005.75;5200068;27;20504;-86
2023/08/08 11:51:45;;;;;;;;;;;;;;;34.93;24.99;98017.69;5163688;27;20306;-86
2023/08/08 11:54:12;;;;;;;;;;;;;;;34.66;25.73;98029.69;5129538;27;19920;-87
2023/08/08 11:56:39;;;;;;;;;;;;;;;34.24;23.92;98018.22;5090042;27;19931;-85
2023/08/08 11:59:05;;;;;;;;;;;;;;;33.84;27.36;98013.41;5080579;27;20288;-84
2023/08/08 12:01:32;;;;;;;;;;;;;;;33.84;27.97;98019.84;5082634;27;19920;-85
2023/08/08 12:04:04;;;;;;;;;;;;;;;33.85;26.50;98029.97;5057829;27;19925;-84
2023/08/08 12:06:30;;;;;;;;;;;;;;;33.65;27.67;98023.56;5090091;27;19917;-85
2023/08/08 12:08:56;;;;;;;;;;;;;;;33.61;27.07;98034.38;5079089;27;19925;-86
2023/08/08 12:11:22;;;;;;;;;;;;;;;33.64;27.67;98025.63;5077198;28;20284;-86
2023/08/08 12:13:48;;;;;;;;;;;;;;;33.47;26.18;98015.28;5091543;27;20002;-86
2023/08/08 12:16:14;;;;;;;;;;;;;;;33.68;28.23;98031.84;5080755;27;19968;-85
2023/08/08 12:18:40;;;;;;;;;;;;;;;33.70;26.62;98040.69;5079460;28;19916;-86
2023/08/08 12:21:08;;;;;;;;;;;;;;;32.99;27.41;98035.63;5092814;27;19916;-84
2023/08/08 12:23:35;;;;;;;;;;;;;;;32.53;27.10;98063.91;5078813;27;19961;-85
2023/08/08 12:26:04;;;;;;;;;;;;;;;31.80;27.25;98082.91;5071869;28;20392;-84
2023/08/08 12:28:31;;;;;;;;;;;;;;;30.18;29.12;98099.50;5078754;27;20422;-84
2023/08/08 12:30:57;;;;;;;;;;;;;;;28.51;32.84;98096.53;5072518;28;19936;-84
2023/08/08 12:33:23;;;;;;;;;;;;;;;28.51;33.10;98082.41;5075047;28;19960;-85
2023/08/08 12:35:49;;;;;;;;;;;;;;;29.25;33.18;98083.00;5081728;28;19924;-86
2023/08/08 12:38:15;;;;;;;;;;;;;;;29.87;33.78;98091.22;5072527;28;20011;-86
2023/08/08 12:40:42;;;;;;;;;;;;;;;30.69;33.41;98092.59;5072212;28;20357;-86
2023/08/08 12:43:09;;;;;;;;;;;;;;;31.08;32.85;98087.84;5081386;27;19924;-85
2023/08/08 12:45:35;;;;;;;;;;;;;;;31.51;32.50;98069.44;5083315;28;19920;-86